General Rafael Buelna International Airport
MMMZ : now visible

Airfield :











YOU CAN JOIN US ON...

 
LOGIN :

Register | Disclaimer

   EN    FR    IT 

 









Legend :    VFR   Marginal VFR   IFR   Intensive IFR   Very Intensive IFR
Visi :
Ceiling :
>= 8 km
>= 3000ft
5 to 8 km
1000 to 3000 ft
1500m to 5 km
500 to 1000 ft
800 to 1500m
200 to 500 ft
< 800m
< 200 ft
Symbols :   Thunderstorms  Fog  Heavy snow  Heavy precipitations  Wind > 20 kt






- Airport Elevation : 38 ft
- IATA code : MZT


MMMZ - General Rafael Buelna International

CURRENT METAR :
  • 131652Z 25005KT 15SM SCT080 OVC220 30/22 A2986 RMK 8/067 ISOL SC

EXPIRED METARs :
  • 131543Z 18004KT 15SM SCT080 OVC220 28/22 A2986 RMK 8/067 ISOL SC
  • 131446Z 04004KT 14SM SCT080 OVC220 27/22 A2986 RMK SLP106 52002 911 8/067 ISOL SC BINOVC

TAF TAF MMMZ
Valid from the 13 at 12:00 until the 14 at 18:00 UTC


131056Z 1312/1418 04005KT P6SM SCT020 BKN100 OVC250 TX32/1319Z TN24/1312Z
TEMPO 1312/1316 6SM -RA BKN020
FM131800 23010KT P6SM SCT020 BKN100 BKN250
FM140600 34005KT P6SM SCT020 BKN080
PROB40 1406/1410 6SM -RA BKN020
FM141700 26010KT P6SM SCT030 SCT080 BKN250
MMFR FIR / North America



MET'MAP, your aeronautical weather chart ! - Copyright ORBIFLY December 2007 - Disclaimer

ORBIFLY MET'MAP TEAM :

Programming & Development : Alexandra Zaïnal
Concept & original design : Baudouin d'Aumeries
Assistance for programming : Marc-Olivier Méhu
Technical & hardware support : Manuel Goepfert

Contact : metmap@orbifly.com




SOURCES & CREDITS :

   NOAA       Earth
Advisory